White River (Arkansas), Norfork (07057370)

StateArkansasCurrentGood (20200 cfs)
RiverWhite RiverFlood - The river is flooding. Obstacles can be treacherous or deadly. The river should be avoided at this stage for casual trips and definitely for the inexperienced. Trips should be attempted only with protective gear and equipment.Flood(none)
Updated2020-01-22 14:30 (17 minutes ago)High - The river is high and potentially dangerous, especially for the young and / or inexperienced. Normal stream obstacles are sometimes difficult to navigate. Extended distances can be attempted, but canoe travel may not be advisable.High(none)
Discharge20200 cfs (median: 5680 cfs)Good - Conditions are ideal for a canoe or kayak. Boats typically will drag on fewer than one-quarter of riffles, if at all, and portages are unnecessary or rare. Normal float lengths can be attempted without a problem.Good2000
Height10.76 feetLow - River is low but can still be floated. Some riffles are okay but most come with significant dragging and might need a portage. Float lengths should be reduced to accommodate low flow, dragging, and portages.Low(none)
TrendFalling (falling over 24 hours)Poor - River is too low to float comfortably. Most or all riffles will drag or must be portaged and some obstacles (such as slick shelf rock) cause undue problems. Avoid the river at this stage for casual paddling trips.Poor(none)
USGSExternal icon USGS Site for Norfork (07057370)LocationExternal icon Google Maps

Trending Data

Plot Image
ObservationHeightDischargeMaximum
Discharge
Minimum
Discharge
Mean
Discharge
P05P10P20P25P50
(Median)
P75P80P90P95
2020-01-22 14:30 10.76 20200 32600 (2016) 902 (2006) 10100 1710 2360 2660 5680 16300 21300 27700
2020-01-22 13:30 10.80 20300 32600 (2016) 902 (2006) 10100 1710 2360 2660 5680 16300 21300 27700
2020-01-22 12:30 10.84 20400 32600 (2016) 902 (2006) 10100 1710 2360 2660 5680 16300 21300 27700
2020-01-22 11:30 10.81 20300 32600 (2016) 902 (2006) 10100 1710 2360 2660 5680 16300 21300 27700
2020-01-22 10:30 10.83 20300 32600 (2016) 902 (2006) 10100 1710 2360 2660 5680 16300 21300 27700
2020-01-22 09:30 10.83 20300 32600 (2016) 902 (2006) 10100 1710 2360 2660 5680 16300 21300 27700
2020-01-22 08:30 10.84 20400 32600 (2016) 902 (2006) 10100 1710 2360 2660 5680 16300 21300 27700
2020-01-22 07:30 10.85 20400 32600 (2016) 902 (2006) 10100 1710 2360 2660 5680 16300 21300 27700
2020-01-22 06:30 10.85 20400 32600 (2016) 902 (2006) 10100 1710 2360 2660 5680 16300 21300 27700
2020-01-22 05:30 10.87 20400 32600 (2016) 902 (2006) 10100 1710 2360 2660 5680 16300 21300 27700
2020-01-22 04:30 10.88 20500 32600 (2016) 902 (2006) 10100 1710 2360 2660 5680 16300 21300 27700
2020-01-22 03:30 10.87 20400 32600 (2016) 902 (2006) 10100 1710 2360 2660 5680 16300 21300 27700
2020-01-22 02:30 10.89 20500 32600 (2016) 902 (2006) 10100 1710 2360 2660 5680 16300 21300 27700
2020-01-22 01:30 10.86 20400 32600 (2016) 902 (2006) 10100 1710 2360 2660 5680 16300 21300 27700
2020-01-22 00:30 10.91 20500 32600 (2016) 902 (2006) 10100 1710 2360 2660 5680 16300 21300 27700
2020-01-21 23:30 10.88 20500 31000 (2016) 1030 (2006) 9700 1530 2710 2830 5750 14800 20200 27400
2020-01-21 22:30 10.87 20400 31000 (2016) 1030 (2006) 9700 1530 2710 2830 5750 14800 20200 27400
2020-01-21 21:30 10.90 20500 31000 (2016) 1030 (2006) 9700 1530 2710 2830 5750 14800 20200 27400
2020-01-21 20:30 10.92 20600 31000 (2016) 1030 (2006) 9700 1530 2710 2830 5750 14800 20200 27400
2020-01-21 19:30 10.92 20600 31000 (2016) 1030 (2006) 9700 1530 2710 2830 5750 14800 20200 27400
2020-01-21 18:30 10.92 20600 31000 (2016) 1030 (2006) 9700 1530 2710 2830 5750 14800 20200 27400
2020-01-21 17:30 10.95 20600 31000 (2016) 1030 (2006) 9700 1530 2710 2830 5750 14800 20200 27400
2020-01-21 16:30 10.92 20600 31000 (2016) 1030 (2006) 9700 1530 2710 2830 5750 14800 20200 27400
2020-01-21 15:30 10.89 20500 31000 (2016) 1030 (2006) 9700 1530 2710 2830 5750 14800 20200 27400
2020-01-21 14:30 10.91 20500 31000 (2016) 1030 (2006) 9700 1530 2710 2830 5750 14800 20200 27400
2020-01-21 13:30 10.90 20500 31000 (2016) 1030 (2006) 9700 1530 2710 2830 5750 14800 20200 27400
2020-01-21 12:30 10.94 20600 31000 (2016) 1030 (2006) 9700 1530 2710 2830 5750 14800 20200 27400
2020-01-21 11:30 10.92 20600 31000 (2016) 1030 (2006) 9700 1530 2710 2830 5750 14800 20200 27400
2020-01-21 10:30 10.93 20600 31000 (2016) 1030 (2006) 9700 1530 2710 2830 5750 14800 20200 27400
2020-01-21 09:30 10.92 20600 31000 (2016) 1030 (2006) 9700 1530 2710 2830 5750 14800 20200 27400
2020-01-21 08:30 10.96 20700 31000 (2016) 1030 (2006) 9700 1530 2710 2830 5750 14800 20200 27400
2020-01-21 07:30 10.93 20600 31000 (2016) 1030 (2006) 9700 1530 2710 2830 5750 14800 20200 27400
2020-01-21 06:30 10.93 20600 31000 (2016) 1030 (2006) 9700 1530 2710 2830 5750 14800 20200 27400
2020-01-21 05:30 10.92 20600 31000 (2016) 1030 (2006) 9700 1530 2710 2830 5750 14800 20200 27400
2020-01-21 04:30 10.81 20300 31000 (2016) 1030 (2006) 9700 1530 2710 2830 5750 14800 20200 27400
2020-01-21 03:30 10.51 19500 31000 (2016) 1030 (2006) 9700 1530 2710 2830 5750 14800 20200 27400
2020-01-21 02:30 10.33 19100 31000 (2016) 1030 (2006) 9700 1530 2710 2830 5750 14800 20200 27400
2020-01-21 01:30 10.42 19300 31000 (2016) 1030 (2006) 9700 1530 2710 2830 5750 14800 20200 27400
2020-01-21 00:30 10.59 19700 31000 (2016) 1030 (2006) 9700 1530 2710 2830 5750 14800 20200 27400
2020-01-20 23:30 10.82 20300 30600 (2016) 879 (2006) 9660 1140 2920 3170 6960 13000 19400 27400
2020-01-20 22:30 10.98 20700 30600 (2016) 879 (2006) 9660 1140 2920 3170 6960 13000 19400 27400
2020-01-20 21:30 10.99 20700 30600 (2016) 879 (2006) 9660 1140 2920 3170 6960 13000 19400 27400
2020-01-20 20:30 10.97 20700 30600 (2016) 879 (2006) 9660 1140 2920 3170 6960 13000 19400 27400
2020-01-20 19:30 10.99 20700 30600 (2016) 879 (2006) 9660 1140 2920 3170 6960 13000 19400 27400
2020-01-20 18:30 10.98 20700 30600 (2016) 879 (2006) 9660 1140 2920 3170 6960 13000 19400 27400
2020-01-20 17:30 10.98 20700 30600 (2016) 879 (2006) 9660 1140 2920 3170 6960 13000 19400 27400
2020-01-20 16:30 11.00 20800 30600 (2016) 879 (2006) 9660 1140 2920 3170 6960 13000 19400 27400
2020-01-20 15:30 11.00 20800 30600 (2016) 879 (2006) 9660 1140 2920 3170 6960 13000 19400 27400
2020-01-20 14:30 10.98 20700 30600 (2016) 879 (2006) 9660 1140 2920 3170 6960 13000 19400 27400
2020-01-20 13:30 10.99 20700 30600 (2016) 879 (2006) 9660 1140 2920 3170 6960 13000 19400 27400
2020-01-20 12:30 10.97 20700 30600 (2016) 879 (2006) 9660 1140 2920 3170 6960 13000 19400 27400
2020-01-20 11:30 10.94 20600 30600 (2016) 879 (2006) 9660 1140 2920 3170 6960 13000 19400 27400
2020-01-20 10:30 10.90 20500 30600 (2016) 879 (2006) 9660 1140 2920 3170 6960 13000 19400 27400
2020-01-20 09:30 10.86 20400 30600 (2016) 879 (2006) 9660 1140 2920 3170 6960 13000 19400 27400
2020-01-20 08:30 10.79 20200 30600 (2016) 879 (2006) 9660 1140 2920 3170 6960 13000 19400 27400
2020-01-20 07:30 10.71 20000 30600 (2016) 879 (2006) 9660 1140 2920 3170 6960 13000 19400 27400
2020-01-20 06:30 10.59 19700 30600 (2016) 879 (2006) 9660 1140 2920 3170 6960 13000 19400 27400
2020-01-20 05:30 10.28 19000 30600 (2016) 879 (2006) 9660 1140 2920 3170 6960 13000 19400 27400
2020-01-20 04:30 10.10 18500 30600 (2016) 879 (2006) 9660 1140 2920 3170 6960 13000 19400 27400
2020-01-20 03:30 10.13 18600 30600 (2016) 879 (2006) 9660 1140 2920 3170 6960 13000 19400 27400
2020-01-20 02:30 10.14 18600 30600 (2016) 879 (2006) 9660 1140 2920 3170 6960 13000 19400 27400
2020-01-20 01:30 10.20 18800 30600 (2016) 879 (2006) 9660 1140 2920 3170 6960 13000 19400 27400
2020-01-20 00:30 10.33 19100 30600 (2016) 879 (2006) 9660 1140 2920 3170 6960 13000 19400 27400
2020-01-19 23:30 10.57 19700 29000 (2016) 1180 (2008) 10500 1400 2970 3610 6510 18100 23200 26500
2020-01-19 22:30 10.76 20200 29000 (2016) 1180 (2008) 10500 1400 2970 3610 6510 18100 23200 26500
2020-01-19 21:30 10.75 20100 29000 (2016) 1180 (2008) 10500 1400 2970 3610 6510 18100 23200 26500
2020-01-19 20:30 10.77 20200 29000 (2016) 1180 (2008) 10500 1400 2970 3610 6510 18100 23200 26500
2020-01-19 19:30 10.75 20100 29000 (2016) 1180 (2008) 10500 1400 2970 3610 6510 18100 23200 26500
2020-01-19 18:30 10.75 20100 29000 (2016) 1180 (2008) 10500 1400 2970 3610 6510 18100 23200 26500
2020-01-19 17:30 10.76 20200 29000 (2016) 1180 (2008) 10500 1400 2970 3610 6510 18100 23200 26500
2020-01-19 16:30 10.71 20000 29000 (2016) 1180 (2008) 10500 1400 2970 3610 6510 18100 23200 26500
2020-01-19 15:30 10.70 20000 29000 (2016) 1180 (2008) 10500 1400 2970 3610 6510 18100 23200 26500
2020-01-19 14:30 10.72 20100 29000 (2016) 1180 (2008) 10500 1400 2970 3610 6510 18100 23200 26500
2020-01-19 13:30 10.70 20000 29000 (2016) 1180 (2008) 10500 1400 2970 3610 6510 18100 23200 26500
2020-01-19 12:30 10.69 20000 29000 (2016) 1180 (2008) 10500 1400 2970 3610 6510 18100 23200 26500
2020-01-19 11:30 10.66 19900 29000 (2016) 1180 (2008) 10500 1400 2970 3610 6510 18100 23200 26500
2020-01-19 10:30 10.62 19800 29000 (2016) 1180 (2008) 10500 1400 2970 3610 6510 18100 23200 26500
2020-01-19 09:30 10.58 19700 29000 (2016) 1180 (2008) 10500 1400 2970 3610 6510 18100 23200 26500
2020-01-19 08:30 10.44 19400 29000 (2016) 1180 (2008) 10500 1400 2970 3610 6510 18100 23200 26500
2020-01-19 07:30 10.10 18500 29000 (2016) 1180 (2008) 10500 1400 2970 3610 6510 18100 23200 26500
2020-01-19 06:30 9.88 17800 29000 (2016) 1180 (2008) 10500 1400 2970 3610 6510 18100 23200 26500
2020-01-19 05:30 9.87 17800 29000 (2016) 1180 (2008) 10500 1400 2970 3610 6510 18100 23200 26500
2020-01-19 04:30 9.85 17700 29000 (2016) 1180 (2008) 10500 1400 2970 3610 6510 18100 23200 26500
2020-01-19 03:30 9.85 17700 29000 (2016) 1180 (2008) 10500 1400 2970 3610 6510 18100 23200 26500
2020-01-19 02:30 9.79 17500 29000 (2016) 1180 (2008) 10500 1400 2970 3610 6510 18100 23200 26500
2020-01-19 01:30 9.78 17400 29000 (2016) 1180 (2008) 10500 1400 2970 3610 6510 18100 23200 26500
2020-01-19 00:30 9.88 17800 29000 (2016) 1180 (2008) 10500 1400 2970 3610 6510 18100 23200 26500
2020-01-18 23:30 10.06 18400 28100 (2016) 1130 (2006) 10200 1340 2680 3560 7280 18100 20600 25700
2020-01-18 22:30 10.22 18800 28100 (2016) 1130 (2006) 10200 1340 2680 3560 7280 18100 20600 25700
2020-01-18 21:30 10.27 18900 28100 (2016) 1130 (2006) 10200 1340 2680 3560 7280 18100 20600 25700
2020-01-18 20:30 10.32 19100 28100 (2016) 1130 (2006) 10200 1340 2680 3560 7280 18100 20600 25700
2020-01-18 19:30 10.31 19000 28100 (2016) 1130 (2006) 10200 1340 2680 3560 7280 18100 20600 25700
2020-01-18 18:30 10.27 18900 28100 (2016) 1130 (2006) 10200 1340 2680 3560 7280 18100 20600 25700
2020-01-18 17:30 9.98 18200 28100 (2016) 1130 (2006) 10200 1340 2680 3560 7280 18100 20600 25700
2020-01-18 16:30 9.86 17700 28100 (2016) 1130 (2006) 10200 1340 2680 3560 7280 18100 20600 25700
2020-01-18 15:30 9.92 18000 28100 (2016) 1130 (2006) 10200 1340 2680 3560 7280 18100 20600 25700
2020-01-18 14:30 9.99 18200 28100 (2016) 1130 (2006) 10200 1340 2680 3560 7280 18100 20600 25700
2020-01-18 13:30 10.16 18700 28100 (2016) 1130 (2006) 10200 1340 2680 3560 7280 18100 20600 25700
2020-01-18 12:30 10.34 19100 28100 (2016) 1130 (2006) 10200 1340 2680 3560 7280 18100 20600 25700
2020-01-18 11:30 10.23 18800 28100 (2016) 1130 (2006) 10200 1340 2680 3560 7280 18100 20600 25700
2020-01-18 10:30 10.13 18600 28100 (2016) 1130 (2006) 10200 1340 2680 3560 7280 18100 20600 25700
2020-01-18 09:30 10.06 18400 28100 (2016) 1130 (2006) 10200 1340 2680 3560 7280 18100 20600 25700
2020-01-18 08:30 9.94 18000 28100 (2016) 1130 (2006) 10200 1340 2680 3560 7280 18100 20600 25700
2020-01-18 07:30 9.87 17800 28100 (2016) 1130 (2006) 10200 1340 2680 3560 7280 18100 20600 25700
2020-01-18 06:30 9.62 16800 28100 (2016) 1130 (2006) 10200 1340 2680 3560 7280 18100 20600 25700
2020-01-18 05:30 9.54 16500 28100 (2016) 1130 (2006) 10200 1340 2680 3560 7280 18100 20600 25700
2020-01-18 04:30 9.62 16800 28100 (2016) 1130 (2006) 10200 1340 2680 3560 7280 18100 20600 25700
2020-01-18 03:30 9.63 16900 28100 (2016) 1130 (2006) 10200 1340 2680 3560 7280 18100 20600 25700
2020-01-18 02:30 9.64 16900 28100 (2016) 1130 (2006) 10200 1340 2680 3560 7280 18100 20600 25700
2020-01-18 01:30 9.64 16900 28100 (2016) 1130 (2006) 10200 1340 2680 3560 7280 18100 20600 25700
2020-01-18 00:30 9.62 16800 28100 (2016) 1130 (2006) 10200 1340 2680 3560 7280 18100 20600 25700
2020-01-17 23:30 9.68 17100 26200 (2016) 898 (2006) 10500 1270 2740 3050 6140 19700 21500 24400
2020-01-17 22:30 9.83 17600 26200 (2016) 898 (2006) 10500 1270 2740 3050 6140 19700 21500 24400
2020-01-17 21:30 9.98 18200 26200 (2016) 898 (2006) 10500 1270 2740 3050 6140 19700 21500 24400
2020-01-17 20:30 10.15 18600 26200 (2016) 898 (2006) 10500 1270 2740 3050 6140 19700 21500 24400
2020-01-17 19:30 10.35 19100 26200 (2016) 898 (2006) 10500 1270 2740 3050 6140 19700 21500 24400
2020-01-17 18:30 10.43 19300 26200 (2016) 898 (2006) 10500 1270 2740 3050 6140 19700 21500 24400
2020-01-17 17:30 10.51 19500 26200 (2016) 898 (2006) 10500 1270 2740 3050 6140 19700 21500 24400
2020-01-17 16:30 10.48 19500 26200 (2016) 898 (2006) 10500 1270 2740 3050 6140 19700 21500 24400
2020-01-17 15:30 10.52 19600 26200 (2016) 898 (2006) 10500 1270 2740 3050 6140 19700 21500 24400
2020-01-17 14:30 10.53 19600 26200 (2016) 898 (2006) 10500 1270 2740 3050 6140 19700 21500 24400
2020-01-17 13:30 10.61 19800 26200 (2016) 898 (2006) 10500 1270 2740 3050 6140 19700 21500 24400
2020-01-17 12:30 10.81 20300 26200 (2016) 898 (2006) 10500 1270 2740 3050 6140 19700 21500 24400
2020-01-17 11:30 10.97 20700 26200 (2016) 898 (2006) 10500 1270 2740 3050 6140 19700 21500 24400
2020-01-17 10:30 10.93 20600 26200 (2016) 898 (2006) 10500 1270 2740 3050 6140 19700 21500 24400
2020-01-17 09:30 10.76 20200 26200 (2016) 898 (2006) 10500 1270 2740 3050 6140 19700 21500 24400
2020-01-17 08:30 10.57 19700 26200 (2016) 898 (2006) 10500 1270 2740 3050 6140 19700 21500 24400
2020-01-17 07:30 10.19 18700 26200 (2016) 898 (2006) 10500 1270 2740 3050 6140 19700 21500 24400
2020-01-17 06:30 10.02 18300 26200 (2016) 898 (2006) 10500 1270 2740 3050 6140 19700 21500 24400
2020-01-17 05:30 10.05 18400 26200 (2016) 898 (2006) 10500 1270 2740 3050 6140 19700 21500 24400
2020-01-17 04:30 10.14 18600 26200 (2016) 898 (2006) 10500 1270 2740 3050 6140 19700 21500 24400
2020-01-17 03:30 10.21 18800 26200 (2016) 898 (2006) 10500 1270 2740 3050 6140 19700 21500 24400
2020-01-17 02:30 10.19 18700 26200 (2016) 898 (2006) 10500 1270 2740 3050 6140 19700 21500 24400
2020-01-17 01:30 10.17 18700 26200 (2016) 898 (2006) 10500 1270 2740 3050 6140 19700 21500 24400
2020-01-17 00:30 10.13 18600 26200 (2016) 898 (2006) 10500 1270 2740 3050 6140 19700 21500 24400
2020-01-16 23:30 10.15 18600 27600 (2007) 832 (2006) 10600 1660 2670 2900 5130 22100 22600 24400
2020-01-16 22:30 10.20 18800 27600 (2007) 832 (2006) 10600 1660 2670 2900 5130 22100 22600 24400
2020-01-16 21:30 10.36 19200 27600 (2007) 832 (2006) 10600 1660 2670 2900 5130 22100 22600 24400
2020-01-16 20:30 10.67 19900 27600 (2007) 832 (2006) 10600 1660 2670 2900 5130 22100 22600 24400
2020-01-16 19:30 10.78 20200 27600 (2007) 832 (2006) 10600 1660 2670 2900 5130 22100 22600 24400
2020-01-16 18:30 10.57 19700 27600 (2007) 832 (2006) 10600 1660 2670 2900 5130 22100 22600 24400
2020-01-16 17:30 10.63 19800 27600 (2007) 832 (2006) 10600 1660 2670 2900 5130 22100 22600 24400
2020-01-16 16:30 10.65 19900 27600 (2007) 832 (2006) 10600 1660 2670 2900 5130 22100 22600 24400
2020-01-16 15:30 10.68 20000 27600 (2007) 832 (2006) 10600 1660 2670 2900 5130 22100 22600 24400
2020-01-16 14:30 10.69 20000 27600 (2007) 832 (2006) 10600 1660 2670 2900 5130 22100 22600 24400
2020-01-16 13:30 10.72 20100 27600 (2007) 832 (2006) 10600 1660 2670 2900 5130 22100 22600 24400
2020-01-16 12:30 10.81 20300 27600 (2007) 832 (2006) 10600 1660 2670 2900 5130 22100 22600 24400
2020-01-16 11:30 11.03 20900 27600 (2007) 832 (2006) 10600 1660 2670 2900 5130 22100 22600 24400
2020-01-16 10:30 11.27 21500 27600 (2007) 832 (2006) 10600 1660 2670 2900 5130 22100 22600 24400
2020-01-16 09:30 11.20 21300 27600 (2007) 832 (2006) 10600 1660 2670 2900 5130 22100 22600 24400
2020-01-16 08:30 11.04 20900 27600 (2007) 832 (2006) 10600 1660 2670 2900 5130 22100 22600 24400
2020-01-16 07:30 10.59 19700 27600 (2007) 832 (2006) 10600 1660 2670 2900 5130 22100 22600 24400
2020-01-16 06:30 10.46 19400 27600 (2007) 832 (2006) 10600 1660 2670 2900 5130 22100 22600 24400
2020-01-16 05:30 10.46 19400 27600 (2007) 832 (2006) 10600 1660 2670 2900 5130 22100 22600 24400
2020-01-16 04:30 10.45 19400 27600 (2007) 832 (2006) 10600 1660 2670 2900 5130 22100 22600 24400
2020-01-16 03:30 10.45 19400 27600 (2007) 832 (2006) 10600 1660 2670 2900 5130 22100 22600 24400
2020-01-16 02:30 10.41 19300 27600 (2007) 832 (2006) 10600 1660 2670 2900 5130 22100 22600 24400
2020-01-16 01:30 10.44 19400 27600 (2007) 832 (2006) 10600 1660 2670 2900 5130 22100 22600 24400
2020-01-16 00:30 10.39 19200 27600 (2007) 832 (2006) 10600 1660 2670 2900 5130 22100 22600 24400
2020-01-15 23:30 10.41 19300 40400 (2007) 843 (2006) 12000 1840 2980 3300 5520 22700 23400 28900
2020-01-15 22:30 10.45 19400 40400 (2007) 843 (2006) 12000 1840 2980 3300 5520 22700 23400 28900
2020-01-15 21:30 10.44 19400 40400 (2007) 843 (2006) 12000 1840 2980 3300 5520 22700 23400 28900
2020-01-15 20:30 10.42 19300 40400 (2007) 843 (2006) 12000 1840 2980 3300 5520 22700 23400 28900
2020-01-15 19:30 10.38 19200 40400 (2007) 843 (2006) 12000 1840 2980 3300 5520 22700 23400 28900
2020-01-15 18:30 10.29 19000 40400 (2007) 843 (2006) 12000 1840 2980 3300 5520 22700 23400 28900
2020-01-15 17:30 10.13 18600 40400 (2007) 843 (2006) 12000 1840 2980 3300 5520 22700 23400 28900
2020-01-15 16:30 9.95 18100 40400 (2007) 843 (2006) 12000 1840 2980 3300 5520 22700 23400 28900
2020-01-15 15:30 9.77 17400 40400 (2007) 843 (2006) 12000 1840 2980 3300 5520 22700 23400 28900
2020-01-15 14:30 9.59 16700 40400 (2007) 843 (2006) 12000 1840 2980 3300 5520 22700 23400 28900
2020-01-15 13:30 9.44 16200 40400 (2007) 843 (2006) 12000 1840 2980 3300 5520 22700 23400 28900
2020-01-15 12:30 9.26 15500 40400 (2007) 843 (2006) 12000 1840 2980 3300 5520 22700 23400 28900
2020-01-15 11:30 9.00 14500 40400 (2007) 843 (2006) 12000 1840 2980 3300 5520 22700 23400 28900
2020-01-15 10:30 8.74 13600 40400 (2007) 843 (2006) 12000 1840 2980 3300 5520 22700 23400 28900
2020-01-15 09:30 8.70 13500 40400 (2007) 843 (2006) 12000 1840 2980 3300 5520 22700 23400 28900
2020-01-15 08:30 8.82 13900 40400 (2007) 843 (2006) 12000 1840 2980 3300 5520 22700 23400 28900
2020-01-15 07:30 8.83 13900 40400 (2007) 843 (2006) 12000 1840 2980 3300 5520 22700 23400 28900
2020-01-15 06:30 9.06 14800 40400 (2007) 843 (2006) 12000 1840 2980 3300 5520 22700 23400 28900
2020-01-15 05:30 9.45 16200 40400 (2007) 843 (2006) 12000 1840 2980 3300 5520 22700 23400 28900
2020-01-15 04:30 9.84 17700 40400 (2007) 843 (2006) 12000 1840 2980 3300 5520 22700 23400 28900
2020-01-15 03:30 10.15 18600 40400 (2007) 843 (2006) 12000 1840 2980 3300 5520 22700 23400 28900
2020-01-15 02:30 10.38 19200 40400 (2007) 843 (2006) 12000 1840 2980 3300 5520 22700 23400 28900
2020-01-15 01:30 10.56 19700 40400 (2007) 843 (2006) 12000 1840 2980 3300 5520 22700 23400 28900
2020-01-15 00:30 10.59 19700 40400 (2007) 843 (2006) 12000 1840 2980 3300 5520 22700 23400 28900

A total of 183 rows are displayed for years 2004 through 2019.

Trips for White River (Arkansas), Norfork (07057370)

DateStartEndDistanceConditionDischargeHeightFishingDetails
Click for details2015-11-11 Buffalo River (B) Shipps Ferry Total trip distance: 28.9 miles5.6 Good 5180 5.43 Poor NoneNone Fillmore, Brian
Miller, Russ
Fillmore, Brian; Miller, Russ
No notes for this trip<i>No notes for this trip</i> USGS Gauge Data:
Norfork (07057370)
Discharge: 5180
Height: 5.43
<b>USGS Gauge Data:</b></br />Norfork (07057370)<br />Discharge: 5180<br />Height: 5.43
Source: FillmoreSource: Fillmore
Click for details2016-08-28 Buffalo River Shipps Ferry Total trip distance: 28.9 miles5.6 Good 3640 5.25 Poor LSFLSF Fillmore, Brian
Fillmore, Rebecca
Fillmore, Wylee
Javorsek, Rachel
Fillmore, Brian; Fillmore, Rebecca; Fillmore, Wylee; Javorsek, Rachel
No notes for this trip<i>No notes for this trip</i> USGS Gauge Data:
Norfork (07057370)
Discharge: 3640
Height: 5.25
<b>USGS Gauge Data:</b></br />Norfork (07057370)<br />Discharge: 3640<br />Height: 5.25
Source: FillmoreSource: Fillmore

A total of 2 rows are displayed.

Trip Summary for White River (Arkansas), Norfork (07057370)

Miles11.2
Trips2
People5
Dates2
Years2
Months2
Rows2
Sources1

Condition Descriptions

Fishing Conditions

Fish Species

Notes

Classic Trip List

The classic River Trips application is still available for use. It is updated with the new system using a data retrofit. It is no longer maintained. The original River Trips application is no longer updated (as of 1 Dec 2016) but can be checked for errors or for the condition of the data before it was converted to the new system.